createdAt,value
2022-11-26T00:00:45.918Z,96.36
2022-11-26T00:01:45.867Z,96.27
2022-11-26T00:02:45.964Z,96.36
2022-11-26T00:03:45.785Z,96.27
2022-11-26T00:04:45.668Z,96.55
2022-11-26T00:05:45.622Z,96.36
2022-11-26T00:06:45.553Z,96.36
2022-11-26T00:07:45.522Z,96.36
2022-11-26T00:08:45.437Z,96.55
2022-11-26T00:09:45.376Z,96.75
2022-11-26T00:10:45.319Z,96.55
2022-11-26T00:11:45.257Z,96.55
2022-11-26T00:12:45.203Z,96.65
2022-11-26T00:13:45.144Z,96.55
2022-11-26T00:14:45.086Z,96.55
2022-11-26T00:15:45.024Z,96.55
2022-11-26T00:16:45.071Z,96.55
2022-11-26T00:17:44.911Z,96.36
2022-11-26T00:18:44.849Z,96.36
2022-11-26T00:19:44.795Z,96.46
2022-11-26T00:20:44.731Z,96.46
2022-11-26T00:21:44.674Z,96.27
2022-11-26T00:22:44.615Z,96.55
2022-11-26T00:23:44.555Z,96.36
2022-11-26T00:24:44.501Z,96.36
2022-11-26T00:25:44.437Z,96.36
2022-11-26T00:26:44.378Z,96.55
2022-11-26T00:27:44.321Z,96.75
2022-11-26T00:28:44.267Z,97.03
2022-11-26T00:29:44.213Z,97.13
2022-11-26T00:30:44.148Z,96.84
2022-11-26T00:31:44.148Z,96.75
2022-11-26T00:32:44.037Z,97.13
2022-11-26T00:33:43.972Z,97.13
2022-11-26T00:34:43.909Z,97.22
2022-11-26T00:35:43.855Z,96.75
2022-11-26T00:36:43.793Z,97.22
2022-11-26T00:37:43.733Z,96.94
2022-11-26T00:38:43.681Z,97.22
2022-11-26T00:39:43.706Z,97.13
2022-11-26T00:40:43.567Z,97.13
2022-11-26T00:41:43.505Z,97.22
2022-11-26T00:42:43.448Z,97.22
2022-11-26T00:43:43.386Z,97.31
2022-11-26T00:44:43.331Z,97.41
2022-11-26T00:45:43.317Z,97.13
2022-11-26T00:46:43.212Z,97.13
2022-11-26T00:47:43.253Z,97.03
2022-11-26T00:48:43.092Z,97.31
2022-11-26T00:49:43.030Z,97.22
2022-11-26T00:50:42.977Z,97.22
2022-11-26T00:51:42.914Z,97.13
2022-11-26T00:52:42.862Z,97.31
2022-11-26T00:53:42.805Z,97.31
2022-11-26T00:54:42.740Z,97.13
2022-11-26T00:55:42.683Z,97.13
2022-11-26T00:56:42.628Z,96.94
2022-11-26T00:57:42.571Z,97.13
2022-11-26T00:58:42.506Z,96.94
2022-11-26T00:59:42.456Z,96.94
2022-11-26T01:00:42.447Z,97.13
2022-11-26T01:01:42.339Z,97.03
2022-11-26T01:02:42.396Z,97.03
2022-11-26T01:03:42.212Z,97.31
2022-11-26T01:04:42.158Z,96.94
2022-11-26T01:05:42.095Z,97.03
2022-11-26T01:06:42.042Z,97.03
2022-11-26T01:07:42.059Z,97.03
2022-11-26T01:08:41.925Z,97.03
2022-11-26T01:09:41.864Z,97.03
2022-11-26T01:10:41.811Z,97.31
2022-11-26T01:11:41.748Z,97.22
2022-11-26T01:12:41.686Z,97.22
2022-11-26T01:13:41.631Z,97.13
2022-11-26T01:14:41.574Z,97.22
2022-11-26T01:15:41.517Z,97.51
2022-11-26T01:16:41.560Z,97.31
2022-11-26T01:17:41.400Z,97.51
2022-11-26T01:18:41.336Z,97.31
2022-11-26T01:19:41.274Z,97.31
2022-11-26T01:20:41.224Z,97.51
2022-11-26T01:21:41.162Z,97.51
2022-11-26T01:22:41.108Z,97.31
2022-11-26T01:23:41.040Z,97.89
2022-11-26T01:24:40.989Z,97.70
2022-11-26T01:25:40.927Z,97.79
2022-11-26T01:26:40.865Z,97.89
2022-11-26T01:27:40.809Z,97.79
2022-11-26T01:28:40.753Z,97.99
2022-11-26T01:29:40.692Z,97.89
2022-11-26T01:30:40.632Z,97.89
2022-11-26T01:31:40.677Z,97.79
2022-11-26T01:32:40.518Z,97.70
2022-11-26T01:33:40.488Z,97.89
2022-11-26T01:34:40.724Z,97.70
2022-11-26T01:35:40.344Z,97.99
2022-11-26T01:36:40.282Z,97.79
2022-11-26T01:37:40.223Z,97.79
2022-11-26T01:38:40.167Z,98.08
2022-11-26T01:39:40.103Z,98.18
2022-11-26T01:40:40.051Z,97.70
2022-11-26T01:41:39.993Z,98.08
2022-11-26T01:42:39.938Z,98.18
2022-11-26T01:43:39.873Z,97.70
2022-11-26T01:44:40.131Z,97.70
2022-11-26T01:45:39.767Z,97.79
2022-11-26T01:46:39.701Z,97.79
2022-11-26T01:47:39.643Z,97.70
2022-11-26T01:48:39.582Z,97.99
2022-11-26T01:49:39.528Z,98.08
2022-11-26T01:50:39.467Z,98.08
2022-11-26T01:51:39.403Z,98.08
2022-11-26T01:52:39.351Z,97.60
2022-11-26T01:53:39.288Z,97.51
2022-11-26T01:54:39.511Z,97.79
2022-11-26T01:55:39.168Z,97.89
2022-11-26T01:56:39.112Z,97.51
2022-11-26T01:57:39.048Z,98.27
2022-11-26T01:58:40.224Z,98.08
2022-11-26T01:59:38.941Z,98.08
2022-11-26T02:00:38.878Z,97.89
2022-11-26T02:01:38.885Z,97.79
2022-11-26T02:02:38.814Z,97.89
2022-11-26T02:03:38.699Z,97.79
2022-11-26T02:04:38.891Z,97.99
2022-11-26T02:05:38.590Z,97.70
2022-11-26T02:06:38.527Z,97.89
2022-11-26T02:07:38.487Z,98.08
2022-11-26T02:08:38.410Z,97.89
2022-11-26T02:09:38.357Z,98.18
2022-11-26T02:10:38.290Z,97.70
2022-11-26T02:11:38.238Z,97.70
2022-11-26T02:12:38.179Z,97.89
2022-11-26T02:13:38.116Z,97.70
2022-11-26T02:14:38.366Z,97.79
2022-11-26T02:15:37.998Z,97.70
2022-11-26T02:16:37.968Z,97.70
2022-11-26T02:17:37.881Z,98.27
2022-11-26T02:18:37.827Z,98.18
2022-11-26T02:19:37.764Z,97.89
2022-11-26T02:20:37.704Z,98.27
2022-11-26T02:21:37.656Z,98.18
2022-11-26T02:22:37.587Z,98.36
2022-11-26T02:23:37.573Z,98.36
2022-11-26T02:24:37.765Z,98.36
2022-11-26T02:25:37.410Z,98.84
2022-11-26T02:26:37.356Z,98.84
2022-11-26T02:27:37.902Z,97.99
2022-11-26T02:28:37.238Z,98.65
2022-11-26T02:29:37.178Z,98.65
2022-11-26T02:30:37.131Z,98.65
2022-11-26T02:31:37.121Z,98.46
2022-11-26T02:32:37.003Z,98.65
2022-11-26T02:33:36.948Z,98.74
2022-11-26T02:34:37.987Z,98.55
2022-11-26T02:35:36.825Z,98.46
2022-11-26T02:36:36.775Z,98.46
2022-11-26T02:37:36.716Z,98.55
2022-11-26T02:38:36.651Z,98.65
2022-11-26T02:39:36.598Z,98.46
2022-11-26T02:40:36.563Z,98.46
2022-11-26T02:41:36.476Z,98.46
2022-11-26T02:42:36.417Z,98.27
2022-11-26T02:43:36.362Z,98.36
2022-11-26T02:44:36.585Z,98.27
2022-11-26T02:45:36.342Z,98.46
2022-11-26T02:46:36.189Z,98.18
2022-11-26T02:47:36.126Z,98.27
2022-11-26T02:48:36.065Z,98.27
2022-11-26T02:49:36.003Z,98.18
2022-11-26T02:50:35.971Z,98.27
2022-11-26T02:51:35.893Z,98.18
2022-11-26T02:52:35.829Z,98.27
2022-11-26T02:53:35.774Z,98.27
2022-11-26T02:54:35.960Z,98.27
2022-11-26T02:55:35.658Z,98.27
2022-11-26T02:56:35.602Z,98.36
2022-11-26T02:57:35.540Z,98.36
2022-11-26T02:58:35.566Z,98.36
2022-11-26T02:59:35.419Z,98.27
2022-11-26T03:00:35.365Z,98.46
2022-11-26T03:01:35.501Z,98.46
2022-11-26T03:02:35.252Z,98.18
2022-11-26T03:03:35.266Z,98.36
2022-11-26T03:04:35.181Z,98.46
2022-11-26T03:05:35.071Z,98.18
2022-11-26T03:06:35.010Z,98.27
2022-11-26T03:07:34.984Z,98.27
2022-11-26T03:08:34.899Z,98.36
2022-11-26T03:09:34.842Z,98.36
2022-11-26T03:10:34.782Z,98.27
2022-11-26T03:11:34.765Z,98.65
2022-11-26T03:12:34.662Z,98.55
2022-11-26T03:13:34.603Z,98.74
2022-11-26T03:14:34.541Z,98.65
2022-11-26T03:15:34.484Z,98.36
2022-11-26T03:16:34.445Z,98.74
2022-11-26T03:17:34.363Z,98.36
2022-11-26T03:18:34.306Z,98.46
2022-11-26T03:19:34.247Z,98.36
2022-11-26T03:20:34.195Z,98.46
2022-11-26T03:21:34.132Z,98.74
2022-11-26T03:22:34.071Z,98.84
2022-11-26T03:23:34.012Z,98.94
2022-11-26T03:24:33.954Z,98.94
2022-11-26T03:25:33.902Z,99.03
2022-11-26T03:26:33.844Z,98.84
2022-11-26T03:27:33.777Z,98.84
2022-11-26T03:28:33.721Z,99.22
2022-11-26T03:29:33.664Z,98.84
2022-11-26T03:30:33.603Z,98.84
2022-11-26T03:31:33.571Z,99.13
2022-11-26T03:32:33.486Z,98.94
2022-11-26T03:33:33.433Z,98.94
2022-11-26T03:34:33.375Z,98.55
2022-11-26T03:35:33.313Z,98.84
2022-11-26T03:36:33.258Z,98.55
2022-11-26T03:37:33.197Z,99.03
2022-11-26T03:38:33.138Z,99.03
2022-11-26T03:39:33.083Z,98.65
2022-11-26T03:40:33.023Z,98.65
2022-11-26T03:41:32.989Z,98.65
2022-11-26T03:42:32.905Z,98.46
2022-11-26T03:43:32.846Z,98.84
2022-11-26T03:44:32.792Z,98.84
2022-11-26T03:45:32.759Z,98.46
2022-11-26T03:46:32.674Z,98.65
2022-11-26T03:47:32.609Z,99.03
2022-11-26T03:48:32.558Z,99.03
2022-11-26T03:49:32.497Z,98.94
2022-11-26T03:50:32.433Z,98.94
2022-11-26T03:51:32.376Z,99.03
2022-11-26T03:52:32.322Z,98.74
2022-11-26T03:53:32.260Z,98.84
2022-11-26T03:54:32.199Z,98.74
2022-11-26T03:55:32.139Z,98.74
2022-11-26T03:56:32.088Z,98.84
2022-11-26T03:57:32.031Z,98.94
2022-11-26T03:58:31.964Z,99.03
2022-11-26T03:59:31.910Z,99.41
2022-11-26T04:00:31.854Z,98.65
2022-11-26T04:01:31.907Z,98.84
2022-11-26T04:02:31.734Z,98.74
2022-11-26T04:03:31.776Z,98.94
2022-11-26T04:04:31.613Z,98.65
2022-11-26T04:05:31.558Z,98.84
2022-11-26T04:06:32.433Z,98.84
2022-11-26T04:07:31.479Z,98.84
2022-11-26T04:08:32.937Z,98.74
2022-11-26T04:09:31.319Z,98.84
2022-11-26T04:10:31.267Z,98.55
2022-11-26T04:11:31.206Z,98.94
2022-11-26T04:12:31.145Z,98.46
2022-11-26T04:13:31.098Z,99.13
2022-11-26T04:14:31.029Z,99.41
2022-11-26T04:15:30.970Z,99.32
2022-11-26T04:16:30.987Z,99.13
2022-11-26T04:17:30.851Z,99.13
2022-11-26T04:18:30.796Z,99.22
2022-11-26T04:19:30.733Z,99.13
2022-11-26T04:20:30.680Z,99.22
2022-11-26T04:21:30.615Z,99.22
2022-11-26T04:22:30.558Z,99.22
2022-11-26T04:23:30.506Z,98.74
2022-11-26T04:24:30.444Z,99.22
2022-11-26T04:25:30.380Z,98.74
2022-11-26T04:26:30.326Z,99.32
2022-11-26T04:27:30.270Z,99.03
2022-11-26T04:28:30.208Z,98.94
2022-11-26T04:29:30.163Z,99.03
2022-11-26T04:30:30.188Z,98.94
2022-11-26T04:31:30.089Z,99.03
2022-11-26T04:32:29.972Z,99.32
2022-11-26T04:33:29.918Z,99.22
2022-11-26T04:34:29.863Z,99.13
2022-11-26T04:35:29.798Z,99.22
2022-11-26T04:36:29.743Z,99.41
2022-11-26T04:37:29.685Z,99.22
2022-11-26T04:38:29.623Z,99.13
2022-11-26T04:39:29.563Z,99.32
2022-11-26T04:40:29.514Z,99.22
2022-11-26T04:41:29.452Z,99.13
2022-11-26T04:42:29.389Z,99.32
2022-11-26T04:43:29.333Z,99.22
2022-11-26T04:44:29.273Z,99.32
2022-11-26T04:45:29.277Z,99.32
2022-11-26T04:46:29.152Z,99.32
2022-11-26T04:47:29.105Z,99.13
2022-11-26T04:48:29.038Z,99.32
2022-11-26T04:49:28.980Z,99.22
2022-11-26T04:50:28.922Z,99.22
2022-11-26T04:51:28.866Z,99.13
2022-11-26T04:52:28.801Z,99.32
2022-11-26T04:53:28.754Z,99.22
2022-11-26T04:54:28.690Z,99.03
2022-11-26T04:55:28.632Z,98.94
2022-11-26T04:56:28.576Z,98.94
2022-11-26T04:57:28.509Z,99.13
2022-11-26T04:58:28.455Z,99.41
2022-11-26T04:59:28.401Z,99.32
2022-11-26T05:00:28.336Z,99.41
2022-11-26T05:01:28.377Z,99.32
2022-11-26T05:02:28.242Z,99.51
2022-11-26T05:03:28.162Z,99.41
2022-11-26T05:04:28.108Z,99.32
2022-11-26T05:05:28.041Z,99.13
2022-11-26T05:06:27.985Z,99.41
2022-11-26T05:07:28.007Z,99.60
2022-11-26T05:08:27.866Z,99.51
2022-11-26T05:09:27.806Z,99.51
2022-11-26T05:10:27.755Z,99.41
2022-11-26T05:11:27.691Z,99.41
2022-11-26T05:12:27.683Z,99.03
2022-11-26T05:13:27.576Z,99.41
2022-11-26T05:14:27.514Z,99.03
2022-11-26T05:15:27.459Z,99.13
2022-11-26T05:16:27.439Z,99.13
2022-11-26T05:17:27.352Z,99.03
2022-11-26T05:18:27.280Z,99.22
2022-11-26T05:19:27.225Z,99.03
2022-11-26T05:20:27.169Z,99.22
2022-11-26T05:21:27.114Z,99.89
2022-11-26T05:22:27.043Z,99.32
2022-11-26T05:23:26.996Z,99.22
2022-11-26T05:24:26.926Z,99.32
2022-11-26T05:25:26.869Z,99.41
2022-11-26T05:26:26.813Z,99.41
2022-11-26T05:27:26.760Z,99.13
2022-11-26T05:28:26.700Z,99.32
2022-11-26T05:29:26.647Z,99.41
2022-11-26T05:30:26.580Z,99.89
2022-11-26T05:31:26.539Z,99.89
2022-11-26T05:32:26.463Z,99.89
2022-11-26T05:33:26.416Z,99.89
2022-11-26T05:34:26.355Z,99.99
2022-11-26T05:35:26.286Z,99.89
2022-11-26T05:36:26.228Z,99.99
2022-11-26T05:37:26.177Z,99.79
2022-11-26T05:38:26.109Z,99.89
2022-11-26T05:39:26.057Z,99.89
2022-11-26T05:40:25.993Z,99.89
2022-11-26T05:41:25.933Z,99.69
2022-11-26T05:42:25.881Z,99.99
2022-11-26T05:43:25.823Z,99.89
2022-11-26T05:44:25.764Z,99.69
2022-11-26T05:45:25.740Z,99.99
2022-11-26T05:46:25.679Z,99.60
2022-11-26T05:47:25.586Z,99.99
2022-11-26T05:48:25.525Z,99.79
2022-11-26T05:49:25.471Z,99.89
2022-11-26T05:50:25.406Z,99.89
2022-11-26T05:51:25.348Z,99.79
2022-11-26T05:52:25.295Z,99.89
2022-11-26T05:53:25.234Z,99.89
2022-11-26T05:54:25.173Z,99.60
2022-11-26T05:55:25.115Z,99.79
2022-11-26T05:56:25.062Z,99.51
2022-11-26T05:57:24.999Z,99.79
2022-11-26T05:58:24.942Z,99.41
2022-11-26T05:59:24.888Z,99.79
2022-11-26T06:00:24.824Z,99.89
2022-11-26T06:01:24.775Z,99.98
2022-11-26T06:02:24.772Z,99.89
2022-11-26T06:03:24.772Z,99.89
2022-11-26T06:04:24.590Z,99.89
2022-11-26T06:05:24.545Z,99.69
2022-11-26T06:06:24.476Z,99.79
2022-11-26T06:07:24.460Z,99.22
2022-11-26T06:08:24.356Z,99.69
2022-11-26T06:09:24.297Z,99.79
2022-11-26T06:10:24.235Z,99.69
2022-11-26T06:11:24.182Z,99.22
2022-11-26T06:12:24.119Z,99.32
2022-11-26T06:13:24.070Z,99.99
2022-11-26T06:14:24.004Z,99.99
2022-11-26T06:15:23.947Z,99.89
2022-11-26T06:16:23.925Z,99.98
2022-11-26T06:17:23.828Z,99.89
2022-11-26T06:18:23.772Z,99.98
2022-11-26T06:19:23.716Z,99.99
2022-11-26T06:20:23.652Z,99.99
2022-11-26T06:21:23.599Z,99.79
2022-11-26T06:22:23.541Z,99.98
2022-11-26T06:23:23.477Z,99.79
2022-11-26T06:24:23.414Z,99.79
2022-11-26T06:25:23.358Z,99.89
2022-11-26T06:26:23.305Z,99.89
2022-11-26T06:27:23.240Z,99.98
2022-11-26T06:28:23.185Z,99.99
2022-11-26T06:29:27.766Z,99.69
2022-11-26T06:30:23.066Z,99.69
2022-11-26T06:31:23.111Z,99.79
2022-11-26T06:32:22.949Z,99.79
2022-11-26T06:33:22.894Z,99.79
2022-11-26T06:34:22.829Z,99.94
2022-11-26T06:35:22.777Z,99.89
2022-11-26T06:36:22.752Z,99.89
2022-11-26T06:37:22.665Z,99.89
2022-11-26T06:38:22.603Z,99.99
2022-11-26T06:39:22.544Z,99.99
2022-11-26T06:40:22.489Z,99.99
2022-11-26T06:41:22.424Z,99.99
2022-11-26T06:42:22.366Z,99.94
2022-11-26T06:43:22.316Z,99.89
2022-11-26T06:44:22.247Z,99.89
2022-11-26T06:45:22.193Z,99.79
2022-11-26T06:46:22.237Z,99.89
2022-11-26T06:47:22.075Z,99.99
2022-11-26T06:48:22.086Z,99.99
2022-11-26T06:49:21.957Z,99.99
2022-11-26T06:50:21.897Z,99.99
2022-11-26T06:51:21.843Z,99.99
2022-11-26T06:52:21.780Z,99.99
2022-11-26T06:53:21.728Z,99.99
2022-11-26T06:54:21.657Z,99.99
2022-11-26T06:55:21.607Z,99.99
2022-11-26T06:56:21.550Z,99.99
2022-11-26T06:57:21.502Z,99.99
2022-11-26T06:58:21.434Z,99.99
2022-11-26T06:59:21.369Z,99.99
2022-11-26T07:00:21.311Z,99.99
2022-11-26T07:01:21.361Z,99.99
2022-11-26T07:02:21.241Z,99.99
2022-11-26T07:03:24.364Z,99.99
2022-11-26T07:04:21.073Z,99.99
2022-11-26T07:05:21.020Z,99.99
2022-11-26T07:06:20.955Z,99.99
2022-11-26T07:07:20.960Z,99.99
2022-11-26T07:08:20.847Z,99.99
2022-11-26T07:09:20.788Z,99.99
2022-11-26T07:10:20.723Z,99.99
2022-11-26T07:11:20.667Z,99.99
2022-11-26T07:12:20.608Z,99.99
2022-11-26T07:13:20.546Z,99.99
2022-11-26T07:14:20.487Z,99.99
2022-11-26T07:15:20.436Z,99.99
2022-11-26T07:16:20.423Z,99.99
2022-11-26T07:17:20.315Z,99.99
2022-11-26T07:18:20.262Z,99.99
2022-11-26T07:19:20.197Z,99.99
2022-11-26T07:20:20.140Z,99.99
2022-11-26T07:21:20.080Z,99.99
2022-11-26T07:22:20.024Z,99.99
2022-11-26T07:23:19.961Z,99.99
2022-11-26T07:24:19.907Z,99.99
2022-11-26T07:25:19.860Z,99.99
2022-11-26T07:26:19.783Z,99.99
2022-11-26T07:27:19.732Z,99.99
2022-11-26T07:28:19.670Z,99.99
2022-11-26T07:29:19.612Z,99.99
2022-11-26T07:30:19.556Z,99.99
2022-11-26T07:31:19.540Z,99.99
2022-11-26T07:32:19.435Z,99.99
2022-11-26T07:33:19.380Z,99.99
2022-11-26T07:34:19.322Z,99.99
2022-11-26T07:35:19.266Z,99.99
2022-11-26T07:36:19.201Z,99.99
2022-11-26T07:37:19.142Z,99.99
2022-11-26T07:38:19.086Z,99.99
2022-11-26T07:39:19.024Z,99.99
2022-11-26T07:40:18.967Z,99.99
2022-11-26T07:41:18.922Z,99.99
2022-11-26T07:42:18.851Z,99.99
2022-11-26T07:43:18.793Z,99.99
2022-11-26T07:44:18.737Z,99.99
2022-11-26T07:45:18.678Z,99.99
2022-11-26T07:46:18.778Z,99.99
2022-11-26T07:47:18.559Z,99.99
2022-11-26T07:48:18.504Z,99.99
2022-11-26T07:49:18.443Z,99.99
2022-11-26T07:50:18.382Z,99.99
2022-11-26T07:51:18.329Z,99.99
2022-11-26T07:52:18.269Z,99.99
2022-11-26T07:53:18.207Z,99.99
2022-11-26T07:54:18.149Z,99.99
2022-11-26T07:55:18.092Z,99.99
2022-11-26T07:56:18.036Z,99.99
2022-11-26T07:57:18.023Z,99.99
2022-11-26T07:58:17.918Z,99.99
2022-11-26T07:59:17.857Z,99.99
2022-11-26T08:00:17.793Z,99.99
2022-11-26T08:01:17.775Z,99.99
2022-11-26T08:02:17.746Z,99.99
2022-11-26T08:03:17.619Z,99.99
2022-11-26T08:04:17.560Z,99.99
2022-11-26T08:05:17.507Z,99.99
2022-11-26T08:06:17.443Z,99.99
2022-11-26T08:07:24.330Z,99.99
2022-11-26T08:08:17.411Z,99.99
2022-11-26T08:09:17.274Z,99.99
2022-11-26T08:10:17.216Z,99.99
2022-11-26T08:11:17.157Z,99.99
2022-11-26T08:12:17.092Z,99.99
2022-11-26T08:13:17.039Z,99.99
2022-11-26T08:14:16.976Z,99.99
2022-11-26T08:15:16.920Z,99.99
2022-11-26T08:16:16.942Z,99.99
2022-11-26T08:17:16.799Z,99.99
2022-11-26T08:18:16.740Z,99.99
2022-11-26T08:19:16.690Z,99.99
2022-11-26T08:20:16.629Z,99.99
2022-11-26T08:21:16.566Z,99.99
2022-11-26T08:22:16.509Z,99.99
2022-11-26T08:23:16.454Z,99.99
2022-11-26T08:24:16.389Z,99.99
2022-11-26T08:25:16.337Z,99.99
2022-11-26T08:26:30.623Z,99.99
2022-11-26T08:27:16.225Z,99.99
2022-11-26T08:28:16.155Z,99.99
2022-11-26T08:29:16.103Z,99.99
2022-11-26T08:30:16.043Z,99.99
2022-11-26T08:31:16.055Z,99.99
2022-11-26T08:32:15.920Z,99.99
2022-11-26T08:33:15.869Z,99.99
2022-11-26T08:34:15.817Z,99.99
2022-11-26T08:35:15.747Z,99.99
2022-11-26T08:36:15.695Z,99.99
2022-11-26T08:37:15.636Z,99.99
2022-11-26T08:38:15.579Z,99.99
2022-11-26T08:39:15.514Z,99.99
2022-11-26T08:40:15.458Z,99.99
2022-11-26T08:41:15.398Z,99.99
2022-11-26T08:42:15.335Z,99.99
2022-11-26T08:43:15.281Z,99.99
2022-11-26T08:44:15.226Z,99.99
2022-11-26T08:45:15.166Z,99.99
2022-11-26T08:46:15.129Z,99.99
2022-11-26T08:47:15.050Z,99.99
2022-11-26T08:48:14.985Z,99.99
2022-11-26T08:49:15.050Z,99.99
2022-11-26T08:50:14.875Z,99.99
2022-11-26T08:51:14.811Z,99.99
2022-11-26T08:52:14.753Z,99.99
2022-11-26T08:53:14.696Z,99.99
2022-11-26T08:54:14.635Z,99.99
2022-11-26T08:55:14.575Z,99.99
2022-11-26T08:56:14.517Z,99.99
2022-11-26T08:57:14.457Z,99.99
2022-11-26T08:58:14.406Z,99.99
2022-11-26T08:59:14.341Z,99.99
2022-11-26T09:00:14.287Z,99.99
2022-11-26T09:01:14.284Z,99.99
2022-11-26T09:02:18.638Z,99.99
2022-11-26T09:03:14.210Z,99.99
2022-11-26T09:04:14.056Z,99.99
2022-11-26T09:05:13.998Z,99.99
2022-11-26T09:06:13.935Z,99.99
2022-11-26T09:07:13.933Z,99.99
2022-11-26T09:08:13.833Z,99.99
2022-11-26T09:09:14.109Z,99.99
2022-11-26T09:10:13.703Z,99.99
2022-11-26T09:11:13.646Z,99.99
2022-11-26T09:12:13.589Z,99.99
2022-11-26T09:13:17.213Z,99.99
2022-11-26T09:14:13.471Z,99.99
2022-11-26T09:15:13.459Z,99.99
2022-11-26T09:16:13.373Z,99.99
2022-11-26T09:17:13.293Z,99.99
2022-11-26T09:18:13.236Z,99.99
2022-11-26T09:19:13.175Z,99.99
2022-11-26T09:20:13.115Z,99.99
2022-11-26T09:21:13.063Z,99.99
2022-11-26T09:22:13.001Z,99.99
2022-11-26T09:23:12.937Z,99.99
2022-11-26T09:24:12.889Z,99.99
2022-11-26T09:25:12.825Z,99.99
2022-11-26T09:26:34.513Z,99.99
2022-11-26T09:27:12.715Z,99.99
2022-11-26T09:28:12.649Z,99.99
2022-11-26T09:29:12.586Z,99.99
2022-11-26T09:30:12.533Z,99.99
2022-11-26T09:31:12.549Z,99.99
2022-11-26T09:32:32.686Z,99.99
2022-11-26T09:33:12.360Z,99.99
2022-11-26T09:34:12.293Z,99.99
2022-11-26T09:35:12.240Z,99.99
2022-11-26T09:36:12.184Z,99.99
2022-11-26T09:37:12.120Z,99.99
2022-11-26T09:38:12.063Z,99.99
2022-11-26T09:39:12.012Z,99.99
2022-11-26T09:40:11.953Z,99.99
2022-11-26T09:41:11.889Z,99.99
2022-11-26T09:42:11.830Z,99.99
2022-11-26T09:43:11.769Z,99.99
2022-11-26T09:44:11.718Z,99.99
2022-11-26T09:45:11.661Z,99.99
2022-11-26T09:46:11.638Z,99.99
2022-11-26T09:47:13.087Z,99.99
2022-11-26T09:48:11.479Z,99.99
2022-11-26T09:49:11.426Z,99.99
2022-11-26T09:50:11.364Z,99.99
2022-11-26T09:51:11.307Z,99.99
2022-11-26T09:52:11.251Z,99.99
2022-11-26T09:53:11.205Z,99.99
2022-11-26T09:54:11.136Z,99.99
2022-11-26T09:55:11.066Z,99.99
2022-11-26T09:56:11.007Z,99.99
2022-11-26T09:57:10.953Z,99.99
2022-11-26T09:58:10.910Z,99.99
2022-11-26T09:59:10.835Z,99.99
2022-11-26T10:00:10.779Z,99.99
2022-11-26T10:01:10.751Z,99.99
2022-11-26T10:02:10.720Z,99.99
2022-11-26T10:03:10.597Z,99.99
2022-11-26T10:04:10.545Z,99.99
2022-11-26T10:05:10.493Z,99.99
2022-11-26T10:06:10.427Z,99.99
2022-11-26T10:07:10.410Z,99.99
2022-11-26T10:08:10.305Z,99.99
2022-11-26T10:09:10.257Z,99.99
2022-11-26T10:10:10.192Z,99.99
2022-11-26T10:11:10.134Z,99.99
2022-11-26T10:12:24.438Z,99.99
2022-11-26T10:13:18.991Z,99.99
2022-11-26T10:14:09.959Z,99.99
2022-11-26T10:15:09.904Z,99.99
2022-11-26T10:16:09.869Z,99.99
2022-11-26T10:17:09.779Z,99.99
2022-11-26T10:18:09.720Z,99.99
2022-11-26T10:19:09.669Z,99.99
2022-11-26T10:20:09.647Z,99.99
2022-11-26T10:21:09.555Z,99.99
2022-11-26T10:22:09.487Z,99.99
2022-11-26T10:23:09.432Z,99.99
2022-11-26T10:24:09.378Z,99.99
2022-11-26T10:25:09.319Z,99.99
2022-11-26T10:26:09.257Z,99.99
2022-11-26T10:27:09.197Z,99.99
2022-11-26T10:28:09.138Z,99.99
2022-11-26T10:29:09.086Z,99.99
2022-11-26T10:30:09.023Z,99.99
2022-11-26T10:31:09.000Z,99.99
2022-11-26T10:32:08.901Z,99.99
2022-11-26T10:33:08.847Z,99.99
2022-11-26T10:34:08.784Z,99.99
2022-11-26T10:35:08.733Z,99.99
2022-11-26T10:36:08.670Z,99.99
2022-11-26T10:37:08.615Z,99.99
2022-11-26T10:38:08.552Z,99.99
2022-11-26T10:39:08.495Z,99.99
2022-11-26T10:40:08.433Z,99.99
2022-11-26T10:41:08.379Z,99.99
2022-11-26T10:42:08.341Z,99.99
2022-11-26T10:43:08.265Z,99.99
2022-11-26T10:44:08.203Z,99.99
2022-11-26T10:45:11.067Z,99.99
2022-11-26T10:46:08.110Z,99.99
2022-11-26T10:47:08.030Z,99.99
2022-11-26T10:48:07.969Z,99.99
2022-11-26T10:49:07.913Z,99.99
2022-11-26T10:50:31.829Z,99.99
2022-11-26T10:51:07.794Z,99.99
2022-11-26T10:52:07.736Z,99.99
2022-11-26T10:53:07.681Z,99.99
2022-11-26T10:54:07.617Z,99.99
2022-11-26T10:55:07.563Z,99.99
2022-11-26T10:56:07.502Z,99.99
2022-11-26T10:57:07.442Z,99.99
2022-11-26T10:58:07.384Z,99.99
2022-11-26T10:59:07.335Z,99.99
2022-11-26T11:00:07.268Z,99.99
2022-11-26T11:01:07.321Z,99.99
2022-11-26T11:02:07.185Z,99.99
2022-11-26T11:03:07.092Z,99.99
2022-11-26T11:04:08.579Z,99.99
2022-11-26T11:05:06.970Z,99.99
2022-11-26T11:06:06.914Z,99.99
2022-11-26T11:07:11.814Z,99.99
2022-11-26T11:08:06.839Z,99.99
2022-11-26T11:09:06.752Z,99.99
2022-11-26T11:10:06.679Z,99.99
2022-11-26T11:11:06.640Z,99.99
2022-11-26T11:12:06.567Z,99.99
2022-11-26T11:13:08.045Z,99.99
2022-11-26T11:14:06.450Z,99.99
2022-11-26T11:15:06.390Z,99.99
2022-11-26T11:16:06.369Z,99.99
2022-11-26T11:17:06.273Z,99.99
2022-11-26T11:18:06.215Z,99.99
2022-11-26T11:19:06.151Z,99.99
2022-11-26T11:20:06.098Z,99.99
2022-11-26T11:21:06.042Z,99.99
2022-11-26T11:22:05.980Z,99.99
2022-11-26T11:23:05.923Z,99.99
2022-11-26T11:24:09.437Z,99.99
2022-11-26T11:25:05.818Z,99.99
2022-11-26T11:26:05.745Z,99.99
2022-11-26T11:27:05.683Z,99.99
2022-11-26T11:28:11.735Z,99.99
2022-11-26T11:29:05.584Z,99.99
2022-11-26T11:30:05.509Z,99.99
2022-11-26T11:31:05.508Z,99.99
2022-11-26T11:32:05.453Z,99.99
2022-11-26T11:33:05.333Z,99.99
2022-11-26T11:34:05.279Z,99.99
2022-11-26T11:35:05.223Z,99.99
2022-11-26T11:36:05.166Z,99.99
2022-11-26T11:37:05.101Z,99.99
2022-11-26T11:38:05.040Z,99.99
2022-11-26T11:39:04.985Z,99.99
2022-11-26T11:40:04.942Z,99.99
2022-11-26T11:41:04.879Z,99.99
2022-11-26T11:42:04.814Z,99.99
2022-11-26T11:43:04.753Z,99.99
2022-11-26T11:44:04.695Z,99.99
2022-11-26T11:45:04.636Z,99.99
2022-11-26T11:46:04.657Z,99.99
2022-11-26T11:47:04.518Z,99.99
2022-11-26T11:48:04.461Z,99.99
2022-11-26T11:49:04.398Z,99.99
2022-11-26T11:50:04.340Z,99.99
2022-11-26T11:51:04.282Z,99.99
2022-11-26T11:52:04.222Z,99.99
2022-11-26T11:53:04.173Z,99.99
2022-11-26T11:54:04.108Z,99.99
2022-11-26T11:55:04.053Z,99.99
2022-11-26T11:56:03.993Z,99.99
2022-11-26T11:57:03.937Z,99.99
2022-11-26T11:58:03.879Z,99.99
2022-11-26T11:59:03.815Z,99.99
2022-11-26T12:00:03.756Z,99.99
2022-11-26T12:01:03.697Z,99.99
2022-11-26T12:02:03.715Z,99.99
2022-11-26T12:03:03.580Z,99.99
2022-11-26T12:04:06.172Z,99.99
2022-11-26T12:05:03.571Z,99.99
2022-11-26T12:06:03.409Z,99.99
2022-11-26T12:07:03.355Z,99.99
2022-11-26T12:08:03.290Z,99.99
2022-11-26T12:09:03.244Z,99.99
2022-11-26T12:10:03.182Z,99.99
2022-11-26T12:11:03.116Z,99.99
2022-11-26T12:12:03.070Z,99.99
2022-11-26T12:13:03.012Z,99.99
2022-11-26T12:14:02.940Z,99.99
2022-11-26T12:15:02.882Z,99.99
2022-11-26T12:16:02.820Z,99.99
2022-11-26T12:17:02.861Z,99.99
2022-11-26T12:18:02.707Z,99.99
2022-11-26T12:19:02.654Z,99.99
2022-11-26T12:20:02.595Z,99.99
2022-11-26T12:21:02.534Z,99.99
2022-11-26T12:22:02.475Z,99.99
2022-11-26T12:23:02.422Z,99.99
2022-11-26T12:24:02.372Z,99.99
2022-11-26T12:25:02.310Z,99.99
2022-11-26T12:26:02.239Z,99.99
2022-11-26T12:27:02.186Z,99.99
2022-11-26T12:28:02.125Z,99.99
2022-11-26T12:29:02.084Z,99.99
2022-11-26T12:30:02.006Z,99.99
2022-11-26T12:31:01.950Z,99.99
2022-11-26T12:32:01.948Z,99.99
2022-11-26T12:33:01.829Z,99.99
2022-11-26T12:34:05.569Z,99.99
2022-11-26T12:35:01.715Z,99.99
2022-11-26T12:36:01.668Z,99.99
2022-11-26T12:37:01.605Z,99.99
2022-11-26T12:38:01.562Z,99.99
2022-11-26T12:39:01.485Z,99.99
2022-11-26T12:40:01.420Z,99.99
2022-11-26T12:41:01.368Z,99.99
2022-11-26T12:42:01.309Z,99.99
2022-11-26T12:43:01.246Z,99.99
2022-11-26T12:44:01.195Z,99.99
2022-11-26T12:45:01.147Z,99.99
2022-11-26T12:46:01.074Z,99.99
2022-11-26T12:47:01.071Z,99.99
2022-11-26T12:48:00.953Z,99.99
2022-11-26T12:49:00.899Z,99.99
2022-11-26T12:50:00.837Z,99.99
2022-11-26T12:51:00.779Z,99.99
2022-11-26T12:52:00.727Z,99.99